sensor_id;sensor_type;location;lat;lon;timestamp;P1;durP1;ratioP1;P2;durP2;ratioP2
11960;SDS011;6040;49.358;11.140;2022-10-16T00:01:04;2.03;;;1.83;;
11960;SDS011;6040;49.358;11.140;2022-10-16T00:03:32;3.57;;;1.73;;
11960;SDS011;6040;49.358;11.140;2022-10-16T00:06:00;2.90;;;1.80;;
11960;SDS011;6040;49.358;11.140;2022-10-16T00:08:27;1.80;;;1.70;;
11960;SDS011;6040;49.358;11.140;2022-10-16T00:10:58;2.67;;;2.10;;
11960;SDS011;6040;49.358;11.140;2022-10-16T00:13:28;2.23;;;2.03;;
11960;SDS011;6040;49.358;11.140;2022-10-16T00:15:55;2.47;;;2.00;;
11960;SDS011;6040;49.358;11.140;2022-10-16T00:18:23;3.07;;;1.90;;
11960;SDS011;6040;49.358;11.140;2022-10-16T00:20:50;2.30;;;2.10;;
11960;SDS011;6040;49.358;11.140;2022-10-16T00:23:17;2.17;;;1.77;;
11960;SDS011;6040;49.358;11.140;2022-10-16T00:25:44;3.00;;;1.70;;
11960;SDS011;6040;49.358;11.140;2022-10-16T00:28:11;4.10;;;2.00;;
11960;SDS011;6040;49.358;11.140;2022-10-16T00:30:39;2.53;;;2.00;;
11960;SDS011;6040;49.358;11.140;2022-10-16T00:33:06;3.20;;;1.90;;
11960;SDS011;6040;49.358;11.140;2022-10-16T00:35:33;4.07;;;2.00;;
11960;SDS011;6040;49.358;11.140;2022-10-16T00:37:59;3.93;;;2.00;;
11960;SDS011;6040;49.358;11.140;2022-10-16T00:40:26;2.43;;;1.80;;
11960;SDS011;6040;49.358;11.140;2022-10-16T00:42:54;4.17;;;1.97;;
11960;SDS011;6040;49.358;11.140;2022-10-16T00:45:21;4.23;;;2.20;;
11960;SDS011;6040;49.358;11.140;2022-10-16T00:47:49;3.93;;;2.13;;
11960;SDS011;6040;49.358;11.140;2022-10-16T00:50:18;2.77;;;1.80;;
11960;SDS011;6040;49.358;11.140;2022-10-16T00:52:52;4.17;;;2.00;;
11960;SDS011;6040;49.358;11.140;2022-10-16T00:55:21;3.70;;;2.10;;
11960;SDS011;6040;49.358;11.140;2022-10-16T00:57:48;4.37;;;2.20;;
11960;SDS011;6040;49.358;11.140;2022-10-16T01:00:18;3.73;;;1.97;;
11960;SDS011;6040;49.358;11.140;2022-10-16T01:02:52;5.37;;;2.23;;
11960;SDS011;6040;49.358;11.140;2022-10-16T01:05:20;3.27;;;1.90;;
11960;SDS011;6040;49.358;11.140;2022-10-16T01:07:49;3.37;;;2.03;;
11960;SDS011;6040;49.358;11.140;2022-10-16T01:10:24;4.73;;;2.30;;
11960;SDS011;6040;49.358;11.140;2022-10-16T01:12:58;5.23;;;2.37;;
11960;SDS011;6040;49.358;11.140;2022-10-16T01:15:29;3.43;;;2.27;;
11960;SDS011;6040;49.358;11.140;2022-10-16T01:18:03;3.20;;;1.90;;
11960;SDS011;6040;49.358;11.140;2022-10-16T01:20:35;2.00;;;1.90;;
11960;SDS011;6040;49.358;11.140;2022-10-16T01:23:10;3.80;;;1.97;;
11960;SDS011;6040;49.358;11.140;2022-10-16T01:26:03;3.20;;;1.90;;
11960;SDS011;6040;49.358;11.140;2022-10-16T01:28:41;4.37;;;1.87;;
11960;SDS011;6040;49.358;11.140;2022-10-16T01:31:12;2.37;;;1.90;;
11960;SDS011;6040;49.358;11.140;2022-10-16T01:33:43;2.37;;;1.97;;
11960;SDS011;6040;49.358;11.140;2022-10-16T01:36:13;5.20;;;2.13;;
11960;SDS011;6040;49.358;11.140;2022-10-16T01:38:42;9.17;;;2.23;;
11960;SDS011;6040;49.358;11.140;2022-10-16T01:41:14;3.63;;;1.80;;
11960;SDS011;6040;49.358;11.140;2022-10-16T01:43:46;2.43;;;2.10;;
11960;SDS011;6040;49.358;11.140;2022-10-16T01:46:18;3.17;;;1.90;;
11960;SDS011;6040;49.358;11.140;2022-10-16T01:48:47;3.40;;;2.03;;
11960;SDS011;6040;49.358;11.140;2022-10-16T01:51:15;6.90;;;2.00;;
11960;SDS011;6040;49.358;11.140;2022-10-16T01:53:45;2.00;;;1.90;;
11960;SDS011;6040;49.358;11.140;2022-10-16T01:56:14;5.47;;;2.27;;
11960;SDS011;6040;49.358;11.140;2022-10-16T01:58:43;2.73;;;2.00;;
11960;SDS011;6040;49.358;11.140;2022-10-16T02:01:16;3.37;;;1.90;;
11960;SDS011;6040;49.358;11.140;2022-10-16T02:03:48;3.43;;;1.90;;
11960;SDS011;6040;49.358;11.140;2022-10-16T02:06:17;4.70;;;1.93;;
11960;SDS011;6040;49.358;11.140;2022-10-16T02:08:44;5.17;;;2.10;;
11960;SDS011;6040;49.358;11.140;2022-10-16T02:11:12;3.37;;;2.20;;
11960;SDS011;6040;49.358;11.140;2022-10-16T02:13:39;5.20;;;1.90;;
11960;SDS011;6040;49.358;11.140;2022-10-16T02:16:12;2.10;;;1.90;;
11960;SDS011;6040;49.358;11.140;2022-10-16T02:18:40;5.70;;;2.00;;
11960;SDS011;6040;49.358;11.140;2022-10-16T02:21:10;3.60;;;2.00;;
11960;SDS011;6040;49.358;11.140;2022-10-16T02:23:45;3.63;;;2.03;;
11960;SDS011;6040;49.358;11.140;2022-10-16T02:26:18;4.97;;;2.00;;
11960;SDS011;6040;49.358;11.140;2022-10-16T02:28:52;2.87;;;2.00;;
11960;SDS011;6040;49.358;11.140;2022-10-16T02:31:23;3.43;;;2.00;;
11960;SDS011;6040;49.358;11.140;2022-10-16T02:33:53;4.03;;;1.97;;
11960;SDS011;6040;49.358;11.140;2022-10-16T02:36:22;5.57;;;2.10;;
11960;SDS011;6040;49.358;11.140;2022-10-16T02:38:49;2.53;;;1.70;;
11960;SDS011;6040;49.358;11.140;2022-10-16T02:41:17;3.47;;;2.03;;
11960;SDS011;6040;49.358;11.140;2022-10-16T02:43:46;2.93;;;2.10;;
11960;SDS011;6040;49.358;11.140;2022-10-16T02:46:14;3.07;;;2.00;;
11960;SDS011;6040;49.358;11.140;2022-10-16T02:48:42;2.57;;;1.90;;
11960;SDS011;6040;49.358;11.140;2022-10-16T02:51:09;3.87;;;1.90;;
11960;SDS011;6040;49.358;11.140;2022-10-16T02:53:35;3.23;;;1.67;;
11960;SDS011;6040;49.358;11.140;2022-10-16T02:56:02;3.23;;;1.70;;
11960;SDS011;6040;49.358;11.140;2022-10-16T02:58:29;2.70;;;1.83;;
11960;SDS011;6040;49.358;11.140;2022-10-16T03:00:56;3.67;;;1.73;;
11960;SDS011;6040;49.358;11.140;2022-10-16T03:03:23;2.03;;;1.73;;
11960;SDS011;6040;49.358;11.140;2022-10-16T03:05:51;2.30;;;1.80;;
11960;SDS011;6040;49.358;11.140;2022-10-16T03:08:18;6.50;;;1.80;;
11960;SDS011;6040;49.358;11.140;2022-10-16T03:10:48;3.20;;;1.70;;
11960;SDS011;6040;49.358;11.140;2022-10-16T03:13:15;2.40;;;1.70;;
11960;SDS011;6040;49.358;11.140;2022-10-16T03:15:42;2.80;;;1.77;;
11960;SDS011;6040;49.358;11.140;2022-10-16T03:18:09;2.27;;;1.97;;
11960;SDS011;6040;49.358;11.140;2022-10-16T03:20:36;2.97;;;1.90;;
11960;SDS011;6040;49.358;11.140;2022-10-16T03:23:04;2.73;;;1.80;;
11960;SDS011;6040;49.358;11.140;2022-10-16T03:25:33;2.13;;;1.83;;
11960;SDS011;6040;49.358;11.140;2022-10-16T03:27:59;1.93;;;1.60;;
11960;SDS011;6040;49.358;11.140;2022-10-16T03:30:26;4.50;;;1.87;;
11960;SDS011;6040;49.358;11.140;2022-10-16T03:32:53;4.23;;;1.90;;
11960;SDS011;6040;49.358;11.140;2022-10-16T03:35:20;3.37;;;1.73;;
11960;SDS011;6040;49.358;11.140;2022-10-16T03:37:47;2.97;;;1.90;;
11960;SDS011;6040;49.358;11.140;2022-10-16T03:40:15;3.83;;;1.70;;
11960;SDS011;6040;49.358;11.140;2022-10-16T03:42:43;3.03;;;2.00;;
11960;SDS011;6040;49.358;11.140;2022-10-16T03:45:10;2.00;;;1.87;;
11960;SDS011;6040;49.358;11.140;2022-10-16T03:47:37;4.73;;;2.20;;
11960;SDS011;6040;49.358;11.140;2022-10-16T03:50:04;4.90;;;1.83;;
11960;SDS011;6040;49.358;11.140;2022-10-16T03:52:32;2.73;;;1.90;;
11960;SDS011;6040;49.358;11.140;2022-10-16T03:54:59;2.43;;;1.93;;
11960;SDS011;6040;49.358;11.140;2022-10-16T03:57:27;2.57;;;1.70;;
11960;SDS011;6040;49.358;11.140;2022-10-16T03:59:54;2.23;;;1.70;;
11960;SDS011;6040;49.358;11.140;2022-10-16T04:02:20;3.23;;;1.70;;
11960;SDS011;6040;49.358;11.140;2022-10-16T04:04:47;2.20;;;2.00;;
11960;SDS011;6040;49.358;11.140;2022-10-16T04:07:14;2.50;;;2.00;;
11960;SDS011;6040;49.358;11.140;2022-10-16T04:09:41;2.67;;;1.80;;
11960;SDS011;6040;49.358;11.140;2022-10-16T04:12:08;2.13;;;1.80;;
11960;SDS011;6040;49.358;11.140;2022-10-16T04:14:36;2.20;;;1.90;;
11960;SDS011;6040;49.358;11.140;2022-10-16T04:17:02;1.90;;;1.80;;
11960;SDS011;6040;49.358;11.140;2022-10-16T04:19:29;2.87;;;2.10;;
11960;SDS011;6040;49.358;11.140;2022-10-16T04:21:56;3.87;;;2.00;;
11960;SDS011;6040;49.358;11.140;2022-10-16T04:24:23;3.33;;;2.00;;
11960;SDS011;6040;49.358;11.140;2022-10-16T04:26:50;2.80;;;2.03;;
11960;SDS011;6040;49.358;11.140;2022-10-16T04:29:16;3.23;;;2.17;;
11960;SDS011;6040;49.358;11.140;2022-10-16T04:31:45;5.43;;;2.00;;
11960;SDS011;6040;49.358;11.140;2022-10-16T04:34:12;3.63;;;2.17;;
11960;SDS011;6040;49.358;11.140;2022-10-16T04:36:39;5.97;;;1.93;;
11960;SDS011;6040;49.358;11.140;2022-10-16T04:39:06;8.33;;;2.10;;
11960;SDS011;6040;49.358;11.140;2022-10-16T04:41:33;4.40;;;2.17;;
11960;SDS011;6040;49.358;11.140;2022-10-16T04:43:59;6.20;;;1.80;;
11960;SDS011;6040;49.358;11.140;2022-10-16T04:46:26;2.20;;;2.00;;
11960;SDS011;6040;49.358;11.140;2022-10-16T04:48:54;6.33;;;1.90;;
11960;SDS011;6040;49.358;11.140;2022-10-16T04:51:21;2.97;;;1.90;;
11960;SDS011;6040;49.358;11.140;2022-10-16T04:53:48;3.00;;;1.87;;
11960;SDS011;6040;49.358;11.140;2022-10-16T04:56:15;3.17;;;1.70;;
11960;SDS011;6040;49.358;11.140;2022-10-16T04:58:41;2.90;;;1.77;;
11960;SDS011;6040;49.358;11.140;2022-10-16T05:01:08;6.70;;;1.80;;
11960;SDS011;6040;49.358;11.140;2022-10-16T05:03:35;2.30;;;2.10;;
11960;SDS011;6040;49.358;11.140;2022-10-16T05:06:04;6.57;;;1.97;;
11960;SDS011;6040;49.358;11.140;2022-10-16T05:08:31;3.30;;;1.80;;
11960;SDS011;6040;49.358;11.140;2022-10-16T05:10:58;2.30;;;2.00;;
11960;SDS011;6040;49.358;11.140;2022-10-16T05:13:25;5.37;;;2.10;;
11960;SDS011;6040;49.358;11.140;2022-10-16T05:15:51;3.47;;;2.60;;
11960;SDS011;6040;49.358;11.140;2022-10-16T05:18:18;2.73;;;2.00;;
11960;SDS011;6040;49.358;11.140;2022-10-16T05:20:45;2.03;;;1.90;;
11960;SDS011;6040;49.358;11.140;2022-10-16T05:23:13;2.07;;;1.83;;
11960;SDS011;6040;49.358;11.140;2022-10-16T05:25:40;9.00;;;2.27;;
11960;SDS011;6040;49.358;11.140;2022-10-16T05:28:07;2.17;;;1.90;;
11960;SDS011;6040;49.358;11.140;2022-10-16T05:30:33;7.37;;;2.00;;
11960;SDS011;6040;49.358;11.140;2022-10-16T05:33:02;6.10;;;2.07;;
11960;SDS011;6040;49.358;11.140;2022-10-16T05:35:29;2.10;;;1.63;;
11960;SDS011;6040;49.358;11.140;2022-10-16T05:37:56;6.40;;;2.23;;
11960;SDS011;6040;49.358;11.140;2022-10-16T05:40:24;7.57;;;2.10;;
11960;SDS011;6040;49.358;11.140;2022-10-16T05:42:54;4.37;;;2.00;;
11960;SDS011;6040;49.358;11.140;2022-10-16T05:45:21;2.67;;;1.97;;
11960;SDS011;6040;49.358;11.140;2022-10-16T05:47:48;1.90;;;1.80;;
11960;SDS011;6040;49.358;11.140;2022-10-16T05:50:15;5.07;;;1.93;;
11960;SDS011;6040;49.358;11.140;2022-10-16T05:52:42;3.23;;;1.90;;
11960;SDS011;6040;49.358;11.140;2022-10-16T05:55:08;3.20;;;2.10;;
11960;SDS011;6040;49.358;11.140;2022-10-16T05:57:36;4.77;;;2.10;;
11960;SDS011;6040;49.358;11.140;2022-10-16T06:00:04;2.90;;;2.00;;
11960;SDS011;6040;49.358;11.140;2022-10-16T06:02:31;2.53;;;1.70;;
11960;SDS011;6040;49.358;11.140;2022-10-16T06:04:58;3.47;;;2.30;;
11960;SDS011;6040;49.358;11.140;2022-10-16T06:07:25;3.03;;;1.97;;
11960;SDS011;6040;49.358;11.140;2022-10-16T06:09:52;3.90;;;2.30;;
11960;SDS011;6040;49.358;11.140;2022-10-16T06:12:19;7.03;;;2.00;;
11960;SDS011;6040;49.358;11.140;2022-10-16T06:14:48;5.07;;;2.40;;
11960;SDS011;6040;49.358;11.140;2022-10-16T06:17:14;2.30;;;2.10;;
11960;SDS011;6040;49.358;11.140;2022-10-16T06:19:41;3.30;;;2.30;;
11960;SDS011;6040;49.358;11.140;2022-10-16T06:22:08;4.37;;;2.40;;
11960;SDS011;6040;49.358;11.140;2022-10-16T06:24:35;3.87;;;3.10;;
11960;SDS011;6040;49.358;11.140;2022-10-16T06:27:02;3.93;;;3.10;;
11960;SDS011;6040;49.358;11.140;2022-10-16T06:29:29;5.83;;;2.63;;
11960;SDS011;6040;49.358;11.140;2022-10-16T06:31:57;10.23;;;2.90;;
11960;SDS011;6040;49.358;11.140;2022-10-16T06:34:24;4.53;;;2.70;;
11960;SDS011;6040;49.358;11.140;2022-10-16T06:36:51;4.83;;;2.50;;
11960;SDS011;6040;49.358;11.140;2022-10-16T06:39:18;3.70;;;2.40;;
11960;SDS011;6040;49.358;11.140;2022-10-16T06:41:44;3.47;;;2.23;;
11960;SDS011;6040;49.358;11.140;2022-10-16T06:44:11;2.20;;;2.00;;
11960;SDS011;6040;49.358;11.140;2022-10-16T06:46:38;3.17;;;2.10;;
11960;SDS011;6040;49.358;11.140;2022-10-16T06:49:06;3.40;;;2.00;;
11960;SDS011;6040;49.358;11.140;2022-10-16T06:51:33;2.53;;;1.77;;
11960;SDS011;6040;49.358;11.140;2022-10-16T06:54:01;2.70;;;1.63;;
11960;SDS011;6040;49.358;11.140;2022-10-16T06:56:28;4.67;;;1.93;;
11960;SDS011;6040;49.358;11.140;2022-10-16T06:58:56;2.47;;;1.70;;
11960;SDS011;6040;49.358;11.140;2022-10-16T07:01:24;4.63;;;1.60;;
11960;SDS011;6040;49.358;11.140;2022-10-16T07:03:51;1.70;;;1.60;;
11960;SDS011;6040;49.358;11.140;2022-10-16T07:06:21;2.33;;;1.83;;
11960;SDS011;6040;49.358;11.140;2022-10-16T07:08:49;2.07;;;1.70;;
11960;SDS011;6040;49.358;11.140;2022-10-16T07:11:17;3.07;;;2.10;;
11960;SDS011;6040;49.358;11.140;2022-10-16T07:13:45;4.17;;;1.90;;
11960;SDS011;6040;49.358;11.140;2022-10-16T07:16:13;2.33;;;1.80;;
11960;SDS011;6040;49.358;11.140;2022-10-16T07:18:41;6.87;;;2.10;;
11960;SDS011;6040;49.358;11.140;2022-10-16T07:21:12;2.37;;;1.83;;
11960;SDS011;6040;49.358;11.140;2022-10-16T07:23:41;5.20;;;2.10;;
11960;SDS011;6040;49.358;11.140;2022-10-16T07:26:08;4.63;;;2.40;;
11960;SDS011;6040;49.358;11.140;2022-10-16T07:28:36;4.70;;;1.70;;
11960;SDS011;6040;49.358;11.140;2022-10-16T07:31:05;3.10;;;2.10;;
11960;SDS011;6040;49.358;11.140;2022-10-16T07:33:34;4.73;;;2.10;;
11960;SDS011;6040;49.358;11.140;2022-10-16T07:36:01;5.13;;;2.33;;
11960;SDS011;6040;49.358;11.140;2022-10-16T07:38:28;5.50;;;2.43;;
11960;SDS011;6040;49.358;11.140;2022-10-16T07:40:59;2.50;;;2.30;;
11960;SDS011;6040;49.358;11.140;2022-10-16T07:43:27;2.97;;;2.23;;
11960;SDS011;6040;49.358;11.140;2022-10-16T07:45:54;3.53;;;2.37;;
11960;SDS011;6040;49.358;11.140;2022-10-16T07:48:22;2.67;;;2.37;;
11960;SDS011;6040;49.358;11.140;2022-10-16T07:50:50;5.13;;;3.23;;
11960;SDS011;6040;49.358;11.140;2022-10-16T07:53:17;5.63;;;2.67;;
11960;SDS011;6040;49.358;11.140;2022-10-16T07:55:43;4.03;;;2.53;;
11960;SDS011;6040;49.358;11.140;2022-10-16T07:58:12;4.87;;;2.30;;
11960;SDS011;6040;49.358;11.140;2022-10-16T08:00:38;3.20;;;2.50;;
11960;SDS011;6040;49.358;11.140;2022-10-16T08:03:05;4.60;;;3.10;;
11960;SDS011;6040;49.358;11.140;2022-10-16T08:05:32;3.40;;;3.10;;
11960;SDS011;6040;49.358;11.140;2022-10-16T08:08:00;9.53;;;2.60;;
11960;SDS011;6040;49.358;11.140;2022-10-16T08:10:27;6.30;;;3.10;;
11960;SDS011;6040;49.358;11.140;2022-10-16T08:12:56;3.00;;;2.60;;
11960;SDS011;6040;49.358;11.140;2022-10-16T08:15:25;4.50;;;2.30;;
11960;SDS011;6040;49.358;11.140;2022-10-16T08:17:55;2.67;;;2.27;;
11960;SDS011;6040;49.358;11.140;2022-10-16T08:20:23;2.43;;;2.10;;
11960;SDS011;6040;49.358;11.140;2022-10-16T08:22:50;4.93;;;1.97;;
11960;SDS011;6040;49.358;11.140;2022-10-16T08:25:17;4.77;;;2.60;;
11960;SDS011;6040;49.358;11.140;2022-10-16T08:27:44;2.60;;;1.70;;
11960;SDS011;6040;49.358;11.140;2022-10-16T08:30:11;2.20;;;1.90;;
11960;SDS011;6040;49.358;11.140;2022-10-16T08:32:40;3.60;;;2.20;;
11960;SDS011;6040;49.358;11.140;2022-10-16T08:35:08;4.97;;;2.20;;
11960;SDS011;6040;49.358;11.140;2022-10-16T08:37:35;3.70;;;1.80;;
11960;SDS011;6040;49.358;11.140;2022-10-16T08:40:03;6.77;;;2.40;;
11960;SDS011;6040;49.358;11.140;2022-10-16T08:42:35;3.83;;;1.73;;
11960;SDS011;6040;49.358;11.140;2022-10-16T08:45:15;4.43;;;2.13;;
11960;SDS011;6040;49.358;11.140;2022-10-16T08:47:58;4.50;;;1.90;;
11960;SDS011;6040;49.358;11.140;2022-10-16T08:50:36;4.57;;;1.83;;
11960;SDS011;6040;49.358;11.140;2022-10-16T08:53:05;1.73;;;1.63;;
11960;SDS011;6040;49.358;11.140;2022-10-16T08:55:34;3.53;;;2.00;;
11960;SDS011;6040;49.358;11.140;2022-10-16T08:58:10;1.90;;;1.70;;
11960;SDS011;6040;49.358;11.140;2022-10-16T09:00:39;5.30;;;1.80;;
11960;SDS011;6040;49.358;11.140;2022-10-16T09:03:13;2.17;;;1.70;;
11960;SDS011;6040;49.358;11.140;2022-10-16T09:05:57;3.97;;;1.90;;
11960;SDS011;6040;49.358;11.140;2022-10-16T09:08:58;3.77;;;1.83;;
11960;SDS011;6040;49.358;11.140;2022-10-16T09:11:38;3.63;;;1.90;;
11960;SDS011;6040;49.358;11.140;2022-10-16T09:14:17;3.23;;;1.90;;
11960;SDS011;6040;49.358;11.140;2022-10-16T09:17:04;2.70;;;1.70;;
11960;SDS011;6040;49.358;11.140;2022-10-16T09:19:44;3.40;;;1.70;;
11960;SDS011;6040;49.358;11.140;2022-10-16T09:22:17;2.30;;;1.60;;
11960;SDS011;6040;49.358;11.140;2022-10-16T09:24:53;4.77;;;1.77;;
11960;SDS011;6040;49.358;11.140;2022-10-16T09:27:20;2.30;;;1.67;;
11960;SDS011;6040;49.358;11.140;2022-10-16T09:29:48;2.20;;;1.67;;
11960;SDS011;6040;49.358;11.140;2022-10-16T09:32:15;1.97;;;1.60;;
11960;SDS011;6040;49.358;11.140;2022-10-16T09:34:47;2.30;;;1.70;;
11960;SDS011;6040;49.358;11.140;2022-10-16T09:37:17;2.10;;;1.73;;
11960;SDS011;6040;49.358;11.140;2022-10-16T09:39:45;1.93;;;1.53;;
11960;SDS011;6040;49.358;11.140;2022-10-16T09:42:14;2.73;;;1.50;;
11960;SDS011;6040;49.358;11.140;2022-10-16T09:44:42;2.93;;;1.43;;
11960;SDS011;6040;49.358;11.140;2022-10-16T09:47:15;5.37;;;1.87;;
11960;SDS011;6040;49.358;11.140;2022-10-16T09:49:52;1.80;;;1.40;;
11960;SDS011;6040;49.358;11.140;2022-10-16T09:52:21;1.97;;;1.50;;
11960;SDS011;6040;49.358;11.140;2022-10-16T09:54:48;2.20;;;1.60;;
11960;SDS011;6040;49.358;11.140;2022-10-16T09:57:17;1.80;;;1.60;;
11960;SDS011;6040;49.358;11.140;2022-10-16T09:59:47;3.10;;;1.87;;
11960;SDS011;6040;49.358;11.140;2022-10-16T10:02:15;3.70;;;1.50;;
11960;SDS011;6040;49.358;11.140;2022-10-16T10:04:47;3.87;;;1.97;;
11960;SDS011;6040;49.358;11.140;2022-10-16T10:07:18;4.60;;;2.10;;
11960;SDS011;6040;49.358;11.140;2022-10-16T10:09:49;5.37;;;1.77;;
11960;SDS011;6040;49.358;11.140;2022-10-16T10:12:17;1.83;;;1.50;;
11960;SDS011;6040;49.358;11.140;2022-10-16T10:14:47;5.63;;;1.87;;
11960;SDS011;6040;49.358;11.140;2022-10-16T10:17:16;2.83;;;1.70;;
11960;SDS011;6040;49.358;11.140;2022-10-16T10:19:46;2.73;;;1.87;;
11960;SDS011;6040;49.358;11.140;2022-10-16T10:22:27;4.90;;;1.77;;
11960;SDS011;6040;49.358;11.140;2022-10-16T10:28:13;2.03;;;1.83;;
11960;SDS011;6040;49.358;11.140;2022-10-16T10:30:50;5.70;;;1.50;;
11960;SDS011;6040;49.358;11.140;2022-10-16T10:33:25;3.00;;;1.60;;
11960;SDS011;6040;49.358;11.140;2022-10-16T10:36:00;1.97;;;1.50;;
11960;SDS011;6040;49.358;11.140;2022-10-16T10:38:40;1.60;;;1.50;;
11960;SDS011;6040;49.358;11.140;2022-10-16T10:41:27;3.40;;;1.60;;
11960;SDS011;6040;49.358;11.140;2022-10-16T10:44:23;4.80;;;1.70;;
11960;SDS011;6040;49.358;11.140;2022-10-16T10:47:00;3.70;;;1.57;;
11960;SDS011;6040;49.358;11.140;2022-10-16T10:49:42;2.30;;;1.43;;
11960;SDS011;6040;49.358;11.140;2022-10-16T10:52:22;1.50;;;1.40;;
11960;SDS011;6040;49.358;11.140;2022-10-16T10:55:02;2.47;;;1.50;;
11960;SDS011;6040;49.358;11.140;2022-10-16T10:57:37;5.10;;;1.50;;
11960;SDS011;6040;49.358;11.140;2022-10-16T11:00:12;2.63;;;1.40;;
11960;SDS011;6040;49.358;11.140;2022-10-16T11:02:46;4.03;;;1.80;;
11960;SDS011;6040;49.358;11.140;2022-10-16T11:05:22;3.40;;;1.57;;
11960;SDS011;6040;49.358;11.140;2022-10-16T11:08:06;3.10;;;1.70;;
11960;SDS011;6040;49.358;11.140;2022-10-16T11:10:44;4.20;;;1.80;;
11960;SDS011;6040;49.358;11.140;2022-10-16T11:13:21;2.73;;;1.80;;
11960;SDS011;6040;49.358;11.140;2022-10-16T11:15:55;3.63;;;1.70;;
11960;SDS011;6040;49.358;11.140;2022-10-16T11:18:24;2.80;;;1.43;;
11960;SDS011;6040;49.358;11.140;2022-10-16T11:20:59;4.13;;;1.70;;
11960;SDS011;6040;49.358;11.140;2022-10-16T11:23:33;3.27;;;1.80;;
11960;SDS011;6040;49.358;11.140;2022-10-16T11:26:08;2.33;;;1.50;;
11960;SDS011;6040;49.358;11.140;2022-10-16T11:28:41;2.17;;;1.63;;
11960;SDS011;6040;49.358;11.140;2022-10-16T11:31:13;4.27;;;1.80;;
11960;SDS011;6040;49.358;11.140;2022-10-16T11:33:45;6.27;;;2.17;;
11960;SDS011;6040;49.358;11.140;2022-10-16T11:36:17;3.10;;;2.07;;
11960;SDS011;6040;49.358;11.140;2022-10-16T11:38:49;2.27;;;1.90;;
11960;SDS011;6040;49.358;11.140;2022-10-16T11:41:22;4.30;;;1.80;;
11960;SDS011;6040;49.358;11.140;2022-10-16T11:43:58;3.33;;;1.60;;
11960;SDS011;6040;49.358;11.140;2022-10-16T11:46:36;3.50;;;1.70;;
11960;SDS011;6040;49.358;11.140;2022-10-16T11:49:08;2.23;;;1.53;;
11960;SDS011;6040;49.358;11.140;2022-10-16T11:51:39;2.63;;;1.60;;
11960;SDS011;6040;49.358;11.140;2022-10-16T11:54:14;3.00;;;1.40;;
11960;SDS011;6040;49.358;11.140;2022-10-16T11:56:48;1.50;;;1.40;;
11960;SDS011;6040;49.358;11.140;2022-10-16T11:59:20;2.53;;;1.50;;
11960;SDS011;6040;49.358;11.140;2022-10-16T12:01:56;1.73;;;1.50;;
11960;SDS011;6040;49.358;11.140;2022-10-16T12:04:31;2.73;;;1.70;;
11960;SDS011;6040;49.358;11.140;2022-10-16T12:07:11;2.17;;;1.50;;
11960;SDS011;6040;49.358;11.140;2022-10-16T12:09:41;4.30;;;1.53;;
11960;SDS011;6040;49.358;11.140;2022-10-16T12:15:15;1.63;;;1.53;;
11960;SDS011;6040;49.358;11.140;2022-10-16T12:17:45;3.90;;;2.10;;
11960;SDS011;6040;49.358;11.140;2022-10-16T12:20:19;2.53;;;1.70;;
11960;SDS011;6040;49.358;11.140;2022-10-16T12:22:53;4.33;;;1.53;;
11960;SDS011;6040;49.358;11.140;2022-10-16T12:25:23;2.10;;;1.60;;
11960;SDS011;6040;49.358;11.140;2022-10-16T12:28:03;4.93;;;1.60;;
11960;SDS011;6040;49.358;11.140;2022-10-16T12:30:34;2.93;;;1.30;;
11960;SDS011;6040;49.358;11.140;2022-10-16T12:33:03;2.80;;;1.37;;
11960;SDS011;6040;49.358;11.140;2022-10-16T12:35:32;2.83;;;1.37;;
11960;SDS011;6040;49.358;11.140;2022-10-16T12:38:07;1.37;;;1.27;;
11960;SDS011;6040;49.358;11.140;2022-10-16T12:40:41;3.27;;;1.50;;
11960;SDS011;6040;49.358;11.140;2022-10-16T12:43:23;2.13;;;1.40;;
11960;SDS011;6040;49.358;11.140;2022-10-16T12:46:00;2.33;;;1.47;;
11960;SDS011;6040;49.358;11.140;2022-10-16T12:48:29;2.80;;;1.60;;
11960;SDS011;6040;49.358;11.140;2022-10-16T12:50:56;2.57;;;1.57;;
11960;SDS011;6040;49.358;11.140;2022-10-16T12:53:35;3.17;;;1.40;;
11960;SDS011;6040;49.358;11.140;2022-10-16T12:56:03;6.10;;;1.50;;
11960;SDS011;6040;49.358;11.140;2022-10-16T13:01:29;2.73;;;2.30;;
11960;SDS011;6040;49.358;11.140;2022-10-16T13:06:55;1.40;;;1.30;;
11960;SDS011;6040;49.358;11.140;2022-10-16T13:09:33;1.53;;;1.37;;
11960;SDS011;6040;49.358;11.140;2022-10-16T13:12:12;3.30;;;1.30;;
11960;SDS011;6040;49.358;11.140;2022-10-16T13:14:54;1.70;;;1.40;;
11960;SDS011;6040;49.358;11.140;2022-10-16T13:17:52;4.23;;;1.53;;
11960;SDS011;6040;49.358;11.140;2022-10-16T13:20:27;4.63;;;1.63;;
11960;SDS011;6040;49.358;11.140;2022-10-16T13:23:01;1.50;;;1.40;;
11960;SDS011;6040;49.358;11.140;2022-10-16T13:25:40;1.70;;;1.40;;
11960;SDS011;6040;49.358;11.140;2022-10-16T13:28:16;2.23;;;1.47;;
11960;SDS011;6040;49.358;11.140;2022-10-16T13:30:50;1.40;;;1.30;;
11960;SDS011;6040;49.358;11.140;2022-10-16T13:33:24;4.17;;;1.63;;
11960;SDS011;6040;49.358;11.140;2022-10-16T13:35:56;3.40;;;1.50;;
11960;SDS011;6040;49.358;11.140;2022-10-16T13:38:25;2.73;;;1.20;;
11960;SDS011;6040;49.358;11.140;2022-10-16T13:40:54;3.63;;;1.30;;
11960;SDS011;6040;49.358;11.140;2022-10-16T13:43:23;4.07;;;1.47;;
11960;SDS011;6040;49.358;11.140;2022-10-16T13:45:57;5.73;;;1.47;;
11960;SDS011;6040;49.358;11.140;2022-10-16T13:48:27;1.70;;;1.30;;
11960;SDS011;6040;49.358;11.140;2022-10-16T13:51:00;2.90;;;1.40;;
11960;SDS011;6040;49.358;11.140;2022-10-16T13:53:32;1.50;;;1.40;;
11960;SDS011;6040;49.358;11.140;2022-10-16T13:56:01;3.73;;;1.20;;
11960;SDS011;6040;49.358;11.140;2022-10-16T13:58:29;1.60;;;1.47;;
11960;SDS011;6040;49.358;11.140;2022-10-16T14:00:57;1.53;;;1.33;;
11960;SDS011;6040;49.358;11.140;2022-10-16T14:03:27;2.60;;;1.50;;
11960;SDS011;6040;49.358;11.140;2022-10-16T14:05:56;1.30;;;1.20;;
11960;SDS011;6040;49.358;11.140;2022-10-16T14:08:25;1.10;;;1.10;;
11960;SDS011;6040;49.358;11.140;2022-10-16T14:10:54;1.40;;;1.30;;
11960;SDS011;6040;49.358;11.140;2022-10-16T14:13:26;2.30;;;1.27;;
11960;SDS011;6040;49.358;11.140;2022-10-16T14:15:57;1.57;;;1.47;;
11960;SDS011;6040;49.358;11.140;2022-10-16T14:18:29;3.13;;;1.50;;
11960;SDS011;6040;49.358;11.140;2022-10-16T14:21:02;2.23;;;1.47;;
11960;SDS011;6040;49.358;11.140;2022-10-16T14:23:30;2.83;;;1.40;;
11960;SDS011;6040;49.358;11.140;2022-10-16T14:26:05;4.43;;;1.30;;
11960;SDS011;6040;49.358;11.140;2022-10-16T14:28:42;4.43;;;1.60;;
11960;SDS011;6040;49.358;11.140;2022-10-16T14:31:30;2.60;;;1.30;;
11960;SDS011;6040;49.358;11.140;2022-10-16T14:33:59;2.80;;;1.30;;
11960;SDS011;6040;49.358;11.140;2022-10-16T14:36:27;2.20;;;1.43;;
11960;SDS011;6040;49.358;11.140;2022-10-16T14:38:59;1.73;;;1.40;;
11960;SDS011;6040;49.358;11.140;2022-10-16T14:41:28;5.30;;;1.47;;
11960;SDS011;6040;49.358;11.140;2022-10-16T14:43:57;1.33;;;1.20;;
11960;SDS011;6040;49.358;11.140;2022-10-16T14:46:30;6.37;;;1.40;;
11960;SDS011;6040;49.358;11.140;2022-10-16T14:49:02;1.43;;;1.33;;
11960;SDS011;6040;49.358;11.140;2022-10-16T14:51:39;1.87;;;1.30;;
11960;SDS011;6040;49.358;11.140;2022-10-16T14:54:09;5.93;;;1.67;;
11960;SDS011;6040;49.358;11.140;2022-10-16T14:56:41;5.40;;;1.30;;
11960;SDS011;6040;49.358;11.140;2022-10-16T14:59:13;2.37;;;1.57;;
11960;SDS011;6040;49.358;11.140;2022-10-16T15:01:43;1.87;;;1.33;;
11960;SDS011;6040;49.358;11.140;2022-10-16T15:04:12;1.67;;;1.37;;
11960;SDS011;6040;49.358;11.140;2022-10-16T15:06:40;3.87;;;1.53;;
11960;SDS011;6040;49.358;11.140;2022-10-16T15:09:08;2.97;;;1.50;;
11960;SDS011;6040;49.358;11.140;2022-10-16T15:11:34;3.40;;;1.43;;
11960;SDS011;6040;49.358;11.140;2022-10-16T15:14:01;6.73;;;1.50;;
11960;SDS011;6040;49.358;11.140;2022-10-16T15:16:29;4.23;;;1.50;;
11960;SDS011;6040;49.358;11.140;2022-10-16T15:18:56;3.90;;;1.53;;